sensor_id;sensor_type;location;lat;lon;timestamp;temperature;humidity
51982;DHT22;37998;53.416;6.730;2023-07-16T00:00:25;17.10;99.90
51982;DHT22;37998;53.416;6.730;2023-07-16T00:02:54;17.10;99.90
51982;DHT22;37998;53.416;6.730;2023-07-16T00:05:21;17.10;99.90
51982;DHT22;37998;53.416;6.730;2023-07-16T00:07:47;17.10;99.90
51982;DHT22;37998;53.416;6.730;2023-07-16T00:10:13;17.10;99.90
51982;DHT22;37998;53.416;6.730;2023-07-16T00:12:39;17.10;99.90
51982;DHT22;37998;53.416;6.730;2023-07-16T00:15:07;17.00;99.90
51982;DHT22;37998;53.416;6.730;2023-07-16T00:17:34;17.00;99.90
51982;DHT22;37998;53.416;6.730;2023-07-16T00:20:00;17.00;99.90
51982;DHT22;37998;53.416;6.730;2023-07-16T00:22:26;17.00;99.90
51982;DHT22;37998;53.416;6.730;2023-07-16T00:24:52;17.00;99.90
51982;DHT22;37998;53.416;6.730;2023-07-16T00:27:18;16.90;99.90
51982;DHT22;37998;53.416;6.730;2023-07-16T00:29:44;16.90;99.90
51982;DHT22;37998;53.416;6.730;2023-07-16T00:32:10;16.90;99.90
51982;DHT22;37998;53.416;6.730;2023-07-16T00:34:36;16.90;99.90
51982;DHT22;37998;53.416;6.730;2023-07-16T00:37:02;16.90;99.90
51982;DHT22;37998;53.416;6.730;2023-07-16T00:39:29;16.90;99.90
51982;DHT22;37998;53.416;6.730;2023-07-16T00:41:55;16.90;99.90
51982;DHT22;37998;53.416;6.730;2023-07-16T00:44:22;16.80;99.90
51982;DHT22;37998;53.416;6.730;2023-07-16T00:46:48;16.80;99.90
51982;DHT22;37998;53.416;6.730;2023-07-16T00:49:14;16.80;99.90
51982;DHT22;37998;53.416;6.730;2023-07-16T00:51:40;16.80;99.90
51982;DHT22;37998;53.416;6.730;2023-07-16T00:54:08;16.80;99.90
51982;DHT22;37998;53.416;6.730;2023-07-16T00:56:34;16.80;99.90
51982;DHT22;37998;53.416;6.730;2023-07-16T00:59:01;16.80;99.90
51982;DHT22;37998;53.416;6.730;2023-07-16T01:01:27;16.70;99.90
51982;DHT22;37998;53.416;6.730;2023-07-16T01:03:53;16.70;99.90
51982;DHT22;37998;53.416;6.730;2023-07-16T01:06:40;16.70;99.90
51982;DHT22;37998;53.416;6.730;2023-07-16T01:09:10;16.70;99.90
51982;DHT22;37998;53.416;6.730;2023-07-16T01:11:37;16.70;99.90
51982;DHT22;37998;53.416;6.730;2023-07-16T01:14:05;16.60;99.90
51982;DHT22;37998;53.416;6.730;2023-07-16T01:16:33;16.60;99.90
51982;DHT22;37998;53.416;6.730;2023-07-16T01:18:59;16.70;99.90
51982;DHT22;37998;53.416;6.730;2023-07-16T01:21:31;16.70;99.90
51982;DHT22;37998;53.416;6.730;2023-07-16T01:29:36;16.70;99.90
51982;DHT22;37998;53.416;6.730;2023-07-16T01:32:05;16.70;99.90
51982;DHT22;37998;53.416;6.730;2023-07-16T01:34:36;16.60;99.90
51982;DHT22;37998;53.416;6.730;2023-07-16T01:37:03;16.60;99.90
51982;DHT22;37998;53.416;6.730;2023-07-16T01:39:31;16.70;99.90
51982;DHT22;37998;53.416;6.730;2023-07-16T01:42:05;16.70;99.90
51982;DHT22;37998;53.416;6.730;2023-07-16T01:44:31;16.80;99.90
51982;DHT22;37998;53.416;6.730;2023-07-16T01:47:12;16.80;99.90
51982;DHT22;37998;53.416;6.730;2023-07-16T01:49:39;16.80;99.90
51982;DHT22;37998;53.416;6.730;2023-07-16T01:52:07;16.80;99.90
51982;DHT22;37998;53.416;6.730;2023-07-16T01:54:33;16.70;99.90
51982;DHT22;37998;53.416;6.730;2023-07-16T01:56:59;16.70;99.90
51982;DHT22;37998;53.416;6.730;2023-07-16T01:59:29;16.70;99.90
51982;DHT22;37998;53.416;6.730;2023-07-16T02:01:55;16.70;99.90
51982;DHT22;37998;53.416;6.730;2023-07-16T02:04:22;16.70;99.90
51982;DHT22;37998;53.416;6.730;2023-07-16T02:06:48;16.70;99.90
51982;DHT22;37998;53.416;6.730;2023-07-16T02:09:20;16.70;99.90
51982;DHT22;37998;53.416;6.730;2023-07-16T02:11:46;16.70;99.90
51982;DHT22;37998;53.416;6.730;2023-07-16T02:14:15;16.70;99.90
51982;DHT22;37998;53.416;6.730;2023-07-16T02:16:41;16.70;99.90
51982;DHT22;37998;53.416;6.730;2023-07-16T02:19:07;16.70;99.90
51982;DHT22;37998;53.416;6.730;2023-07-16T02:21:34;16.80;99.90
51982;DHT22;37998;53.416;6.730;2023-07-16T02:24:00;16.80;99.90
51982;DHT22;37998;53.416;6.730;2023-07-16T02:26:26;16.80;99.90
51982;DHT22;37998;53.416;6.730;2023-07-16T02:28:52;16.80;99.90
51982;DHT22;37998;53.416;6.730;2023-07-16T02:31:18;16.70;99.90
51982;DHT22;37998;53.416;6.730;2023-07-16T02:33:47;16.80;99.90
51982;DHT22;37998;53.416;6.730;2023-07-16T02:36:13;16.70;99.90
51982;DHT22;37998;53.416;6.730;2023-07-16T02:38:39;16.80;99.90
51982;DHT22;37998;53.416;6.730;2023-07-16T02:41:05;16.70;99.90
51982;DHT22;37998;53.416;6.730;2023-07-16T02:43:32;16.70;99.90
51982;DHT22;37998;53.416;6.730;2023-07-16T02:45:58;16.70;99.90
51982;DHT22;37998;53.416;6.730;2023-07-16T02:48:24;16.70;99.90
51982;DHT22;37998;53.416;6.730;2023-07-16T02:50:50;16.60;99.90
51982;DHT22;37998;53.416;6.730;2023-07-16T02:53:19;16.60;99.90
51982;DHT22;37998;53.416;6.730;2023-07-16T02:55:45;17.30;99.90
51982;DHT22;37998;53.416;6.730;2023-07-16T02:58:12;16.60;99.90
51982;DHT22;37998;53.416;6.730;2023-07-16T03:00:38;16.60;99.90
51982;DHT22;37998;53.416;6.730;2023-07-16T03:03:04;16.60;99.90
51982;DHT22;37998;53.416;6.730;2023-07-16T03:05:29;16.60;99.90
51982;DHT22;37998;53.416;6.730;2023-07-16T03:07:57;16.60;99.90
51982;DHT22;37998;53.416;6.730;2023-07-16T03:10:22;16.70;99.90
51982;DHT22;37998;53.416;6.730;2023-07-16T03:12:48;16.70;99.90
51982;DHT22;37998;53.416;6.730;2023-07-16T03:15:15;16.70;99.90
51982;DHT22;37998;53.416;6.730;2023-07-16T03:17:43;16.60;99.90
51982;DHT22;37998;53.416;6.730;2023-07-16T03:20:10;16.60;99.90
51982;DHT22;37998;53.416;6.730;2023-07-16T03:22:36;16.70;99.90
51982;DHT22;37998;53.416;6.730;2023-07-16T03:25:02;16.60;99.90
51982;DHT22;37998;53.416;6.730;2023-07-16T03:27:29;16.60;99.90
51982;DHT22;37998;53.416;6.730;2023-07-16T03:29:58;16.70;99.90
51982;DHT22;37998;53.416;6.730;2023-07-16T03:32:24;16.60;99.90
51982;DHT22;37998;53.416;6.730;2023-07-16T03:34:50;16.60;99.90
51982;DHT22;37998;53.416;6.730;2023-07-16T03:37:16;16.60;99.90
51982;DHT22;37998;53.416;6.730;2023-07-16T03:39:42;16.70;99.90
51982;DHT22;37998;53.416;6.730;2023-07-16T03:42:08;16.80;99.90
51982;DHT22;37998;53.416;6.730;2023-07-16T03:44:35;16.70;99.90
51982;DHT22;37998;53.416;6.730;2023-07-16T03:47:02;16.70;99.90
51982;DHT22;37998;53.416;6.730;2023-07-16T03:49:28;16.70;99.90
51982;DHT22;37998;53.416;6.730;2023-07-16T03:51:57;16.70;99.90
51982;DHT22;37998;53.416;6.730;2023-07-16T03:54:25;16.70;99.90
51982;DHT22;37998;53.416;6.730;2023-07-16T03:56:52;17.10;99.90
51982;DHT22;37998;53.416;6.730;2023-07-16T03:59:18;16.70;99.90
51982;DHT22;37998;53.416;6.730;2023-07-16T04:01:46;16.80;99.90
51982;DHT22;37998;53.416;6.730;2023-07-16T04:04:12;16.70;99.90
51982;DHT22;37998;53.416;6.730;2023-07-16T04:06:38;16.80;99.90
51982;DHT22;37998;53.416;6.730;2023-07-16T04:09:04;16.80;99.90
51982;DHT22;37998;53.416;6.730;2023-07-16T04:11:30;16.80;99.90
51982;DHT22;37998;53.416;6.730;2023-07-16T04:13:56;16.80;99.90
51982;DHT22;37998;53.416;6.730;2023-07-16T04:16:22;16.80;99.90
51982;DHT22;37998;53.416;6.730;2023-07-16T04:18:48;16.80;99.90
51982;DHT22;37998;53.416;6.730;2023-07-16T04:21:14;16.80;99.90
51982;DHT22;37998;53.416;6.730;2023-07-16T04:23:40;16.80;99.90
51982;DHT22;37998;53.416;6.730;2023-07-16T04:26:05;16.80;99.90
51982;DHT22;37998;53.416;6.730;2023-07-16T04:28:31;16.80;99.90
51982;DHT22;37998;53.416;6.730;2023-07-16T04:30:57;16.90;99.90
51982;DHT22;37998;53.416;6.730;2023-07-16T04:33:23;16.90;99.90
51982;DHT22;37998;53.416;6.730;2023-07-16T04:35:49;16.90;99.90
51982;DHT22;37998;53.416;6.730;2023-07-16T04:38:18;17.00;99.90
51982;DHT22;37998;53.416;6.730;2023-07-16T04:40:44;16.90;99.90
51982;DHT22;37998;53.416;6.730;2023-07-16T04:43:10;17.00;99.90
51982;DHT22;37998;53.416;6.730;2023-07-16T04:45:36;17.00;99.90
51982;DHT22;37998;53.416;6.730;2023-07-16T04:48:02;17.10;99.90
51982;DHT22;37998;53.416;6.730;2023-07-16T04:50:27;17.10;99.90
51982;DHT22;37998;53.416;6.730;2023-07-16T04:52:53;17.10;99.90
51982;DHT22;37998;53.416;6.730;2023-07-16T04:55:19;17.10;99.90
51982;DHT22;37998;53.416;6.730;2023-07-16T04:57:45;17.10;99.90
51982;DHT22;37998;53.416;6.730;2023-07-16T05:00:11;17.20;99.90
51982;DHT22;37998;53.416;6.730;2023-07-16T05:02:38;17.20;99.90
51982;DHT22;37998;53.416;6.730;2023-07-16T05:05:05;17.30;99.90
51982;DHT22;37998;53.416;6.730;2023-07-16T05:07:31;17.20;99.90
51982;DHT22;37998;53.416;6.730;2023-07-16T05:09:56;17.30;99.90
51982;DHT22;37998;53.416;6.730;2023-07-16T05:12:22;17.30;99.90
51982;DHT22;37998;53.416;6.730;2023-07-16T05:14:49;17.40;99.90
51982;DHT22;37998;53.416;6.730;2023-07-16T05:17:15;17.40;99.90
51982;DHT22;37998;53.416;6.730;2023-07-16T05:19:41;17.50;99.90
51982;DHT22;37998;53.416;6.730;2023-07-16T05:22:07;17.50;99.90
51982;DHT22;37998;53.416;6.730;2023-07-16T05:24:33;17.60;99.90
51982;DHT22;37998;53.416;6.730;2023-07-16T05:26:59;17.60;99.90
51982;DHT22;37998;53.416;6.730;2023-07-16T05:29:27;17.70;99.90
51982;DHT22;37998;53.416;6.730;2023-07-16T05:31:53;17.70;99.90
51982;DHT22;37998;53.416;6.730;2023-07-16T05:34:19;17.80;99.90
51982;DHT22;37998;53.416;6.730;2023-07-16T05:36:45;17.80;99.90
51982;DHT22;37998;53.416;6.730;2023-07-16T05:39:11;17.80;99.90
51982;DHT22;37998;53.416;6.730;2023-07-16T05:41:40;17.90;99.90
51982;DHT22;37998;53.416;6.730;2023-07-16T05:44:08;18.00;99.90
51982;DHT22;37998;53.416;6.730;2023-07-16T05:46:34;18.00;99.90
51982;DHT22;37998;53.416;6.730;2023-07-16T05:49:03;18.00;99.90
51982;DHT22;37998;53.416;6.730;2023-07-16T05:51:29;18.00;99.90
51982;DHT22;37998;53.416;6.730;2023-07-16T05:53:55;18.00;99.90
51982;DHT22;37998;53.416;6.730;2023-07-16T05:56:24;18.00;99.90
51982;DHT22;37998;53.416;6.730;2023-07-16T05:58:50;18.00;99.90
51982;DHT22;37998;53.416;6.730;2023-07-16T06:01:19;18.00;99.90
51982;DHT22;37998;53.416;6.730;2023-07-16T06:03:45;18.00;99.90
51982;DHT22;37998;53.416;6.730;2023-07-16T06:06:11;17.90;99.90
51982;DHT22;37998;53.416;6.730;2023-07-16T06:08:37;18.00;99.90
51982;DHT22;37998;53.416;6.730;2023-07-16T06:11:03;18.00;99.90
51982;DHT22;37998;53.416;6.730;2023-07-16T06:13:30;18.10;99.90
51982;DHT22;37998;53.416;6.730;2023-07-16T06:15:56;18.10;99.90
51982;DHT22;37998;53.416;6.730;2023-07-16T06:18:23;18.10;99.90
51982;DHT22;37998;53.416;6.730;2023-07-16T06:20:49;18.10;99.90
51982;DHT22;37998;53.416;6.730;2023-07-16T06:23:17;18.10;99.90
51982;DHT22;37998;53.416;6.730;2023-07-16T06:25:44;18.10;99.90
51982;DHT22;37998;53.416;6.730;2023-07-16T06:28:13;18.10;99.90
51982;DHT22;37998;53.416;6.730;2023-07-16T06:30:39;18.20;99.90
51982;DHT22;37998;53.416;6.730;2023-07-16T06:33:05;18.30;99.90
51982;DHT22;37998;53.416;6.730;2023-07-16T06:35:31;18.40;99.90
51982;DHT22;37998;53.416;6.730;2023-07-16T06:37:57;18.40;99.90
51982;DHT22;37998;53.416;6.730;2023-07-16T06:40:24;18.50;99.90
51982;DHT22;37998;53.416;6.730;2023-07-16T06:42:50;18.60;99.90
51982;DHT22;37998;53.416;6.730;2023-07-16T06:45:17;18.60;99.90
51982;DHT22;37998;53.416;6.730;2023-07-16T06:47:43;18.50;99.90
51982;DHT22;37998;53.416;6.730;2023-07-16T06:50:09;18.40;99.90
51982;DHT22;37998;53.416;6.730;2023-07-16T06:52:38;18.40;99.90
51982;DHT22;37998;53.416;6.730;2023-07-16T06:55:05;18.40;99.90
51982;DHT22;37998;53.416;6.730;2023-07-16T06:57:31;18.40;99.90
51982;DHT22;37998;53.416;6.730;2023-07-16T06:59:57;18.40;99.90
51982;DHT22;37998;53.416;6.730;2023-07-16T07:02:26;18.30;99.90
51982;DHT22;37998;53.416;6.730;2023-07-16T07:04:52;18.30;99.90
51982;DHT22;37998;53.416;6.730;2023-07-16T07:07:17;18.30;99.90
51982;DHT22;37998;53.416;6.730;2023-07-16T07:09:47;18.30;99.90
51982;DHT22;37998;53.416;6.730;2023-07-16T07:12:14;18.40;99.90
51982;DHT22;37998;53.416;6.730;2023-07-16T07:14:40;18.40;99.90
51982;DHT22;37998;53.416;6.730;2023-07-16T07:17:06;18.40;99.90
51982;DHT22;37998;53.416;6.730;2023-07-16T07:19:32;18.40;99.90
51982;DHT22;37998;53.416;6.730;2023-07-16T07:22:01;18.40;99.90
51982;DHT22;37998;53.416;6.730;2023-07-16T07:24:28;18.30;99.90
51982;DHT22;37998;53.416;6.730;2023-07-16T07:26:54;18.50;99.90
51982;DHT22;37998;53.416;6.730;2023-07-16T07:29:19;18.40;99.90
51982;DHT22;37998;53.416;6.730;2023-07-16T07:31:45;18.40;99.90
51982;DHT22;37998;53.416;6.730;2023-07-16T07:34:11;18.50;99.90
51982;DHT22;37998;53.416;6.730;2023-07-16T07:36:37;18.60;99.90
51982;DHT22;37998;53.416;6.730;2023-07-16T07:39:03;18.70;99.90
51982;DHT22;37998;53.416;6.730;2023-07-16T07:41:29;18.80;99.90
51982;DHT22;37998;53.416;6.730;2023-07-16T07:43:55;18.90;99.90
51982;DHT22;37998;53.416;6.730;2023-07-16T07:46:21;19.00;99.90
51982;DHT22;37998;53.416;6.730;2023-07-16T07:48:50;19.20;99.90
51982;DHT22;37998;53.416;6.730;2023-07-16T07:51:16;19.30;99.90
51982;DHT22;37998;53.416;6.730;2023-07-16T07:53:43;19.20;99.90
51982;DHT22;37998;53.416;6.730;2023-07-16T07:56:09;19.20;99.90
51982;DHT22;37998;53.416;6.730;2023-07-16T07:58:35;19.20;99.90
51982;DHT22;37998;53.416;6.730;2023-07-16T08:01:06;19.20;99.90
51982;DHT22;37998;53.416;6.730;2023-07-16T08:03:32;19.20;99.90
51982;DHT22;37998;53.416;6.730;2023-07-16T08:06:16;19.10;99.90
51982;DHT22;37998;53.416;6.730;2023-07-16T08:08:42;19.10;99.90
51982;DHT22;37998;53.416;6.730;2023-07-16T08:11:08;19.10;99.90
51982;DHT22;37998;53.416;6.730;2023-07-16T08:13:40;19.10;99.90
51982;DHT22;37998;53.416;6.730;2023-07-16T08:16:06;19.20;99.90
51982;DHT22;37998;53.416;6.730;2023-07-16T08:18:32;19.20;99.90
51982;DHT22;37998;53.416;6.730;2023-07-16T08:20:58;19.20;99.90
51982;DHT22;37998;53.416;6.730;2023-07-16T08:23:23;19.20;99.90
51982;DHT22;37998;53.416;6.730;2023-07-16T08:25:49;19.60;99.90
51982;DHT22;37998;53.416;6.730;2023-07-16T08:28:17;19.90;99.90
51982;DHT22;37998;53.416;6.730;2023-07-16T08:30:45;19.80;99.90
51982;DHT22;37998;53.416;6.730;2023-07-16T08:33:11;19.70;99.90
51982;DHT22;37998;53.416;6.730;2023-07-16T08:35:39;19.60;99.90
51982;DHT22;37998;53.416;6.730;2023-07-16T08:38:05;19.60;99.90
51982;DHT22;37998;53.416;6.730;2023-07-16T08:40:36;19.70;99.90
51982;DHT22;37998;53.416;6.730;2023-07-16T08:43:03;19.80;99.90
51982;DHT22;37998;53.416;6.730;2023-07-16T08:45:31;19.70;99.90
51982;DHT22;37998;53.416;6.730;2023-07-16T08:48:00;19.70;99.90
51982;DHT22;37998;53.416;6.730;2023-07-16T08:50:26;19.70;99.90
51982;DHT22;37998;53.416;6.730;2023-07-16T08:52:53;19.60;99.90
51982;DHT22;37998;53.416;6.730;2023-07-16T08:55:19;19.50;99.90
51982;DHT22;37998;53.416;6.730;2023-07-16T08:57:46;19.40;99.90
51982;DHT22;37998;53.416;6.730;2023-07-16T09:00:13;19.30;99.90
51982;DHT22;37998;53.416;6.730;2023-07-16T09:02:40;19.20;99.90
51982;DHT22;37998;53.416;6.730;2023-07-16T09:05:08;19.20;99.90
51982;DHT22;37998;53.416;6.730;2023-07-16T09:07:35;19.30;99.90
51982;DHT22;37998;53.416;6.730;2023-07-16T09:10:03;19.40;99.90
51982;DHT22;37998;53.416;6.730;2023-07-16T09:12:29;19.50;99.90
51982;DHT22;37998;53.416;6.730;2023-07-16T09:14:55;19.70;99.90
51982;DHT22;37998;53.416;6.730;2023-07-16T09:17:22;19.70;99.90
51982;DHT22;37998;53.416;6.730;2023-07-16T09:19:51;20.00;99.90
51982;DHT22;37998;53.416;6.730;2023-07-16T09:22:18;20.20;99.90
51982;DHT22;37998;53.416;6.730;2023-07-16T09:24:48;20.30;99.90
51982;DHT22;37998;53.416;6.730;2023-07-16T09:27:14;20.50;99.90
51982;DHT22;37998;53.416;6.730;2023-07-16T09:29:40;20.60;99.90
51982;DHT22;37998;53.416;6.730;2023-07-16T09:32:06;20.70;99.90
51982;DHT22;37998;53.416;6.730;2023-07-16T09:34:32;20.80;99.90
51982;DHT22;37998;53.416;6.730;2023-07-16T09:37:00;20.90;99.90
51982;DHT22;37998;53.416;6.730;2023-07-16T09:39:26;21.10;99.90
51982;DHT22;37998;53.416;6.730;2023-07-16T09:41:53;21.10;99.90
51982;DHT22;37998;53.416;6.730;2023-07-16T09:44:22;21.20;99.90
51982;DHT22;37998;53.416;6.730;2023-07-16T09:46:47;21.10;99.90
51982;DHT22;37998;53.416;6.730;2023-07-16T09:49:15;20.90;99.90
51982;DHT22;37998;53.416;6.730;2023-07-16T09:51:42;20.70;99.90
51982;DHT22;37998;53.416;6.730;2023-07-16T09:54:09;20.50;99.90
51982;DHT22;37998;53.416;6.730;2023-07-16T09:56:44;20.30;99.90
51982;DHT22;37998;53.416;6.730;2023-07-16T09:59:16;20.20;99.90
51982;DHT22;37998;53.416;6.730;2023-07-16T10:01:44;20.10;99.90
51982;DHT22;37998;53.416;6.730;2023-07-16T10:04:14;20.10;99.90
51982;DHT22;37998;53.416;6.730;2023-07-16T10:06:51;20.30;99.90
51982;DHT22;37998;53.416;6.730;2023-07-16T10:09:40;20.60;99.90
51982;DHT22;37998;53.416;6.730;2023-07-16T10:12:17;20.80;99.90
51982;DHT22;37998;53.416;6.730;2023-07-16T10:14:55;20.70;99.90
51982;DHT22;37998;53.416;6.730;2023-07-16T10:17:25;20.60;99.90
51982;DHT22;37998;53.416;6.730;2023-07-16T10:19:55;20.50;99.90
51982;DHT22;37998;53.416;6.730;2023-07-16T10:22:46;20.30;99.90
51982;DHT22;37998;53.416;6.730;2023-07-16T10:27:46;20.30;99.90
51982;DHT22;37998;53.416;6.730;2023-07-16T10:30:15;20.60;99.90
51982;DHT22;37998;53.416;6.730;2023-07-16T10:32:41;20.80;99.90
51982;DHT22;37998;53.416;6.730;2023-07-16T10:35:08;21.00;99.90
51982;DHT22;37998;53.416;6.730;2023-07-16T10:37:38;21.10;99.90
51982;DHT22;37998;53.416;6.730;2023-07-16T10:40:05;21.00;99.50
51982;DHT22;37998;53.416;6.730;2023-07-16T10:42:35;20.90;99.70
51982;DHT22;37998;53.416;6.730;2023-07-16T10:45:03;20.80;99.80
51982;DHT22;37998;53.416;6.730;2023-07-16T10:47:32;20.80;99.70
51982;DHT22;37998;53.416;6.730;2023-07-16T10:49:58;20.90;99.50
51982;DHT22;37998;53.416;6.730;2023-07-16T10:52:25;21.00;99.50
51982;DHT22;37998;53.416;6.730;2023-07-16T10:54:51;21.10;99.00
51982;DHT22;37998;53.416;6.730;2023-07-16T10:57:29;21.10;99.30
51982;DHT22;37998;53.416;6.730;2023-07-16T10:59:57;21.10;99.20
51982;DHT22;37998;53.416;6.730;2023-07-16T11:02:24;20.90;99.20
51982;DHT22;37998;53.416;6.730;2023-07-16T11:04:51;20.80;99.60
51982;DHT22;37998;53.416;6.730;2023-07-16T11:07:20;20.60;99.90
51982;DHT22;37998;53.416;6.730;2023-07-16T11:09:49;20.60;99.90
51982;DHT22;37998;53.416;6.730;2023-07-16T11:12:20;20.80;99.90
51982;DHT22;37998;53.416;6.730;2023-07-16T11:14:49;21.00;99.90
51982;DHT22;37998;53.416;6.730;2023-07-16T11:17:15;21.10;99.90
51982;DHT22;37998;53.416;6.730;2023-07-16T11:19:45;21.20;99.70
51982;DHT22;37998;53.416;6.730;2023-07-16T11:22:11;21.20;99.40
51982;DHT22;37998;53.416;6.730;2023-07-16T11:24:47;21.20;99.50
51982;DHT22;37998;53.416;6.730;2023-07-16T11:27:25;21.10;99.20
51982;DHT22;37998;53.416;6.730;2023-07-16T11:29:56;21.10;99.20
51982;DHT22;37998;53.416;6.730;2023-07-16T11:32:33;21.30;98.80
51982;DHT22;37998;53.416;6.730;2023-07-16T11:35:00;21.40;98.30
51982;DHT22;37998;53.416;6.730;2023-07-16T11:37:28;21.30;98.20
51982;DHT22;37998;53.416;6.730;2023-07-16T11:39:56;21.20;98.00
51982;DHT22;37998;53.416;6.730;2023-07-16T11:42:30;21.00;98.50
51982;DHT22;37998;53.416;6.730;2023-07-16T11:44:57;21.10;98.30
51982;DHT22;37998;53.416;6.730;2023-07-16T11:47:23;21.30;98.30
51982;DHT22;37998;53.416;6.730;2023-07-16T11:49:49;21.40;98.40
51982;DHT22;37998;53.416;6.730;2023-07-16T11:52:24;21.30;98.00
51982;DHT22;37998;53.416;6.730;2023-07-16T11:54:51;21.20;97.90
51982;DHT22;37998;53.416;6.730;2023-07-16T11:57:17;20.90;98.70
51982;DHT22;37998;53.416;6.730;2023-07-16T11:59:43;20.70;99.60
51982;DHT22;37998;53.416;6.730;2023-07-16T12:02:09;20.60;99.90
51982;DHT22;37998;53.416;6.730;2023-07-16T12:04:38;20.80;99.90
51982;DHT22;37998;53.416;6.730;2023-07-16T12:07:04;21.10;99.60
51982;DHT22;37998;53.416;6.730;2023-07-16T12:09:30;21.40;98.80
51982;DHT22;37998;53.416;6.730;2023-07-16T12:11:56;21.60;98.20
51982;DHT22;37998;53.416;6.730;2023-07-16T12:14:22;21.70;98.40
51982;DHT22;37998;53.416;6.730;2023-07-16T12:16:48;21.60;97.90
51982;DHT22;37998;53.416;6.730;2023-07-16T12:19:14;21.60;97.70
51982;DHT22;37998;53.416;6.730;2023-07-16T12:21:40;21.60;97.40
51982;DHT22;37998;53.416;6.730;2023-07-16T12:24:06;21.60;97.40
51982;DHT22;37998;53.416;6.730;2023-07-16T12:26:32;21.70;97.60
51982;DHT22;37998;53.416;6.730;2023-07-16T12:29:00;21.90;97.30
51982;DHT22;37998;53.416;6.730;2023-07-16T12:31:29;21.80;97.50
51982;DHT22;37998;53.416;6.730;2023-07-16T12:34:00;21.50;97.80
51982;DHT22;37998;53.416;6.730;2023-07-16T12:36:27;21.30;98.30
51982;DHT22;37998;53.416;6.730;2023-07-16T12:38:54;21.20;99.00
51982;DHT22;37998;53.416;6.730;2023-07-16T12:41:20;21.10;98.70
51982;DHT22;37998;53.416;6.730;2023-07-16T12:43:46;20.90;98.80
51982;DHT22;37998;53.416;6.730;2023-07-16T12:46:13;20.90;98.90
51982;DHT22;37998;53.416;6.730;2023-07-16T12:48:38;20.80;99.20
51982;DHT22;37998;53.416;6.730;2023-07-16T12:51:07;20.70;99.20
51982;DHT22;37998;53.416;6.730;2023-07-16T12:53:33;20.70;99.30
51982;DHT22;37998;53.416;6.730;2023-07-16T12:55:59;20.70;99.60
51982;DHT22;37998;53.416;6.730;2023-07-16T12:58:25;20.70;99.50
51982;DHT22;37998;53.416;6.730;2023-07-16T13:00:52;20.70;99.40
51982;DHT22;37998;53.416;6.730;2023-07-16T13:03:20;20.80;99.30
51982;DHT22;37998;53.416;6.730;2023-07-16T13:05:50;20.80;99.20
51982;DHT22;37998;53.416;6.730;2023-07-16T13:08:16;20.90;99.30
51982;DHT22;37998;53.416;6.730;2023-07-16T13:10:42;21.10;99.00
51982;DHT22;37998;53.416;6.730;2023-07-16T13:13:08;21.20;98.70
51982;DHT22;37998;53.416;6.730;2023-07-16T13:15:34;21.20;98.60
51982;DHT22;37998;53.416;6.730;2023-07-16T13:18:00;21.50;98.70
51982;DHT22;37998;53.416;6.730;2023-07-16T13:20:25;21.60;98.40
51982;DHT22;37998;53.416;6.730;2023-07-16T13:22:51;21.60;98.50
51982;DHT22;37998;53.416;6.730;2023-07-16T13:25:17;21.60;98.60
51982;DHT22;37998;53.416;6.730;2023-07-16T13:27:43;21.50;98.60
51982;DHT22;37998;53.416;6.730;2023-07-16T13:30:09;21.30;99.20
51982;DHT22;37998;53.416;6.730;2023-07-16T13:32:36;21.10;99.90
51982;DHT22;37998;53.416;6.730;2023-07-16T13:35:01;20.80;99.90
51982;DHT22;37998;53.416;6.730;2023-07-16T13:37:28;20.40;99.90
51982;DHT22;37998;53.416;6.730;2023-07-16T13:39:54;20.20;99.90
51982;DHT22;37998;53.416;6.730;2023-07-16T13:42:20;20.10;99.90
51982;DHT22;37998;53.416;6.730;2023-07-16T13:44:46;20.10;99.90
51982;DHT22;37998;53.416;6.730;2023-07-16T13:47:15;20.20;99.90
51982;DHT22;37998;53.416;6.730;2023-07-16T13:49:40;20.50;99.90
51982;DHT22;37998;53.416;6.730;2023-07-16T13:52:06;20.90;99.90
51982;DHT22;37998;53.416;6.730;2023-07-16T13:54:32;21.10;99.90
51982;DHT22;37998;53.416;6.730;2023-07-16T13:56:58;21.40;99.90
51982;DHT22;37998;53.416;6.730;2023-07-16T13:59:24;21.50;99.90
51982;DHT22;37998;53.416;6.730;2023-07-16T14:01:59;21.50;99.80
51982;DHT22;37998;53.416;6.730;2023-07-16T14:04:25;21.50;99.50
51982;DHT22;37998;53.416;6.730;2023-07-16T14:06:51;21.60;98.90
51982;DHT22;37998;53.416;6.730;2023-07-16T14:09:19;21.70;97.80
51982;DHT22;37998;53.416;6.730;2023-07-16T14:11:45;21.90;96.80
51982;DHT22;37998;53.416;6.730;2023-07-16T14:14:17;22.00;96.50
51982;DHT22;37998;53.416;6.730;2023-07-16T14:16:43;22.20;95.80
51982;DHT22;37998;53.416;6.730;2023-07-16T14:19:10;22.30;95.70
51982;DHT22;37998;53.416;6.730;2023-07-16T14:21:38;22.40;95.50
51982;DHT22;37998;53.416;6.730;2023-07-16T14:24:04;22.40;95.00
51982;DHT22;37998;53.416;6.730;2023-07-16T14:26:30;22.40;94.80
51982;DHT22;37998;53.416;6.730;2023-07-16T14:28:57;22.50;94.80
51982;DHT22;37998;53.416;6.730;2023-07-16T14:31:22;22.50;95.10
51982;DHT22;37998;53.416;6.730;2023-07-16T14:33:48;22.40;95.60
51982;DHT22;37998;53.416;6.730;2023-07-16T14:36:14;22.40;95.60
51982;DHT22;37998;53.416;6.730;2023-07-16T14:38:40;22.40;95.80
51982;DHT22;37998;53.416;6.730;2023-07-16T14:41:06;22.40;95.70
51982;DHT22;37998;53.416;6.730;2023-07-16T14:43:33;22.30;95.50
51982;DHT22;37998;53.416;6.730;2023-07-16T14:46:02;22.20;95.80
51982;DHT22;37998;53.416;6.730;2023-07-16T14:48:28;22.30;96.10
51982;DHT22;37998;53.416;6.730;2023-07-16T14:50:55;22.40;96.20
51982;DHT22;37998;53.416;6.730;2023-07-16T14:53:20;22.40;96.10
51982;DHT22;37998;53.416;6.730;2023-07-16T14:55:50;22.50;95.90
51982;DHT22;37998;53.416;6.730;2023-07-16T14:58:20;22.50;95.40
51982;DHT22;37998;53.416;6.730;2023-07-16T15:00:48;22.50;94.40
51982;DHT22;37998;53.416;6.730;2023-07-16T15:03:14;22.60;93.50
51982;DHT22;37998;53.416;6.730;2023-07-16T15:05:40;22.70;92.70
51982;DHT22;37998;53.416;6.730;2023-07-16T15:08:06;22.70;92.10
51982;DHT22;37998;53.416;6.730;2023-07-16T15:10:32;22.70;91.90
51982;DHT22;37998;53.416;6.730;2023-07-16T15:12:58;22.80;92.00
51982;DHT22;37998;53.416;6.730;2023-07-16T15:15:25;22.80;91.70
51982;DHT22;37998;53.416;6.730;2023-07-16T15:17:51;22.60;91.40
51982;DHT22;37998;53.416;6.730;2023-07-16T15:20:17;22.60;91.20
51982;DHT22;37998;53.416;6.730;2023-07-16T15:22:46;22.50;91.20
51982;DHT22;37998;53.416;6.730;2023-07-16T15:25:12;22.50;91.10
51982;DHT22;37998;53.416;6.730;2023-07-16T15:27:38;22.50;91.30
51982;DHT22;37998;53.416;6.730;2023-07-16T15:30:04;22.50;91.20
51982;DHT22;37998;53.416;6.730;2023-07-16T15:32:30;22.40;91.20
51982;DHT22;37998;53.416;6.730;2023-07-16T15:34:56;22.20;91.20
51982;DHT22;37998;53.416;6.730;2023-07-16T15:37:22;22.10;91.80